EWG33T EDDS-LIBD
Flight info
| Callsign | EWG33T |
|---|---|
| Flight time | N/A |
| Altitude | 35000 |
| Route | ROTWE7H/07 ROTWE Y126 TUBLO N850 NATOR DCT TRA DCT ARGAX DCT RESIA DCT NIKOL DCT AIOSA DCT BANAV BANAV1H |
| Aircraft | A320/M-VGDW/C |
Departure
| Time | N/A |
|---|---|
| Airport | Stuttgart Airport (EDDS) |
Arrival
| Time | 2026-04-23 19:51 |
|---|---|
| Airport | Bari Karol Wojtyła International Airport (LIBD) |
| Time | Latitude | Longitude | Altitude | Speed | Heading |
|---|---|---|---|---|---|
| 2026-04-23 19:38 | 41.68403 | 17.11902 | 8461 ft | 339 kts | 162° |
| 2026-04-23 19:39 | 41.66168 | 17.12888 | 7556 ft | 337 kts | 161° |
| 2026-04-23 19:39 | 41.63924 | 17.13830 | 7049 ft | 338 kts | 159° |
| 2026-04-23 19:39 | 41.61678 | 17.14771 | 5995 ft | 340 kts | 159° |
| 2026-04-23 19:39 | 41.59423 | 17.15730 | 5375 ft | 338 kts | 159° |
| 2026-04-23 19:40 | 41.57180 | 17.16694 | 5173 ft | 333 kts | 159° |
| 2026-04-23 19:40 | 41.55031 | 17.17625 | 5086 ft | 315 kts | 160° |
| 2026-04-23 19:40 | 41.53009 | 17.18494 | 5096 ft | 296 kts | 160° |
| 2026-04-23 19:40 | 41.51085 | 17.19314 | 5093 ft | 278 kts | 160° |
| 2026-04-23 19:41 | 41.49340 | 17.20054 | 5091 ft | 265 kts | 159° |
| 2026-04-23 19:41 | 41.47597 | 17.20796 | 5102 ft | 262 kts | 158° |
| 2026-04-23 19:41 | 41.45870 | 17.21538 | 5099 ft | 260 kts | 158° |
| 2026-04-23 19:41 | 41.44154 | 17.22279 | 5098 ft | 260 kts | 158° |
| 2026-04-23 19:42 | 41.42426 | 17.23019 | 5099 ft | 260 kts | 159° |
| 2026-04-23 19:42 | 41.40675 | 17.23765 | 5095 ft | 260 kts | 159° |
| 2026-04-23 19:42 | 41.38987 | 17.24489 | 5095 ft | 257 kts | 159° |
| 2026-04-23 19:42 | 41.37287 | 17.25256 | 5093 ft | 260 kts | 157° |
| 2026-04-23 19:43 | 41.35590 | 17.26075 | 5099 ft | 257 kts | 158° |
| 2026-04-23 19:43 | 41.33905 | 17.26897 | 5098 ft | 253 kts | 158° |
| 2026-04-23 19:43 | 41.32275 | 17.27699 | 5095 ft | 245 kts | 157° |
| 2026-04-23 19:43 | 41.30667 | 17.28439 | 5097 ft | 246 kts | 166° |
| 2026-04-23 19:44 | 41.28972 | 17.28401 | 5099 ft | 246 kts | 197° |
| 2026-04-23 19:44 | 41.27499 | 17.27293 | 5100 ft | 247 kts | 229° |
| 2026-04-23 19:44 | 41.26577 | 17.25367 | 5105 ft | 257 kts | 255° |
| 2026-04-23 19:44 | 41.25958 | 17.23110 | 5101 ft | 259 kts | 254° |
| 2026-04-23 19:45 | 41.25343 | 17.20862 | 5100 ft | 260 kts | 253° |
| 2026-04-23 19:45 | 41.24727 | 17.18608 | 5098 ft | 258 kts | 255° |
| 2026-04-23 19:45 | 41.24267 | 17.16328 | 5104 ft | 255 kts | 262° |
| 2026-04-23 19:45 | 41.23868 | 17.14054 | 5099 ft | 246 kts | 262° |
| 2026-04-23 19:46 | 41.23482 | 17.11887 | 5046 ft | 238 kts | 262° |
| 2026-04-23 19:46 | 41.23237 | 17.10393 | 4714 ft | 243 kts | 265° |
| 2026-04-23 19:46 | 41.22840 | 17.08224 | 4550 ft | 237 kts | 259° |
| 2026-04-23 19:46 | 41.22309 | 17.06143 | 4555 ft | 239 kts | 256° |
| 2026-04-23 19:47 | 41.21727 | 17.04058 | 4320 ft | 242 kts | 253° |
| 2026-04-23 19:47 | 41.21128 | 17.01968 | 3987 ft | 242 kts | 253° |
| 2026-04-23 19:47 | 41.20532 | 16.99880 | 3660 ft | 242 kts | 253° |
| 2026-04-23 19:47 | 41.19941 | 16.97786 | 3334 ft | 241 kts | 254° |
| 2026-04-23 19:48 | 41.19358 | 16.95708 | 2987 ft | 241 kts | 253° |
| 2026-04-23 19:48 | 41.18780 | 16.93626 | 2679 ft | 239 kts | 257° |
| 2026-04-23 19:48 | 41.18211 | 16.91563 | 2369 ft | 236 kts | 257° |
| 2026-04-23 19:48 | 41.17659 | 16.89569 | 2062 ft | 224 kts | 257° |
| 2026-04-23 19:49 | 41.17142 | 16.87737 | 1775 ft | 200 kts | 256° |
| 2026-04-23 19:49 | 41.16670 | 16.86097 | 1522 ft | 181 kts | 258° |
| 2026-04-23 19:49 | 41.16241 | 16.84601 | 1285 ft | 166 kts | 258° |
| 2026-04-23 19:49 | 41.15828 | 16.83242 | 1067 ft | 153 kts | 256° |
| 2026-04-23 19:50 | 41.15487 | 16.81953 | 877 ft | 143 kts | 256° |
| 2026-04-23 19:50 | 41.15160 | 16.80730 | 695 ft | 140 kts | 257° |
| 2026-04-23 19:50 | 41.14824 | 16.79525 | 498 ft | 139 kts | 254° |
| 2026-04-23 19:50 | 41.14490 | 16.78351 | 330 ft | 136 kts | 257° |
| 2026-04-23 19:51 | 41.14163 | 16.77169 | 121 ft | 130 kts | 258° |
| 2026-04-23 19:51 | 41.13904 | 16.76232 | 132 ft | 85 kts | 249° |
| 2026-04-23 19:51 | 41.13754 | 16.75707 | 152 ft | 36 kts | 250° |
| 2026-04-23 19:51 | 41.13689 | 16.75585 | 154 ft | 7 kts | 150° |
| 2026-04-23 19:52 | 41.13680 | 16.75638 | 153 ft | 6 kts | 98° |
| 2026-04-23 19:52 | 41.13671 | 16.75689 | 153 ft | 5 kts | 104° |
| 2026-04-23 19:52 | 41.13664 | 16.75729 | 153 ft | 4 kts | 104° |
| 2026-04-23 19:52 | 41.13656 | 16.75770 | 153 ft | 7 kts | 104° |
| 2026-04-23 19:53 | 41.13638 | 16.75867 | 151 ft | 12 kts | 103° |
| 2026-04-23 19:53 | 41.13635 | 16.75989 | 145 ft | 15 kts | 84° |
| 2026-04-23 19:53 | 41.13607 | 16.76060 | 144 ft | 6 kts | 146° |
| 2026-04-23 19:53 | 41.13583 | 16.76084 | 145 ft | 3 kts | 142° |
| 2026-04-23 19:54 | 41.13562 | 16.76110 | 146 ft | 8 kts | 128° |
| 2026-04-23 19:54 | 41.13562 | 16.76198 | 144 ft | 13 kts | 71° |
| 2026-04-23 19:54 | 41.13581 | 16.76313 | 141 ft | 5 kts | 112° |
| 2026-04-23 19:54 | 41.13559 | 16.76327 | 142 ft | 2 kts | 160° |
| 2026-04-23 19:55 | 41.13554 | 16.76330 | 142 ft | 1 kts | 158° |
| 2026-04-23 19:55 | 41.13545 | 16.76335 | 143 ft | 1 kts | 159° |
| 2026-04-23 19:55 | 41.13535 | 16.76340 | 143 ft | 1 kts | 159° |
| 2026-04-23 19:55 | 41.13533 | 16.76341 | 143 ft | 1 kts | 159° |
| 2026-04-23 19:56 | 41.13532 | 16.76341 | 143 ft | 0 kts | 159° |